Joel, Wisconsin
Current Conditions -  °F | °C
As of 12:15 AM on Saturday 20 Dec 2014 (Local Time) from KOEO Reporting Station
Overcast Overcast  
Wind Chill: 21°   Ceiling: 1400
Heat Index: 29°   Visibility: 10mi
Dew Point: 25°   Wind: 8mph
Humidity: 86%   Direction: 150°SSE
Pressure: 30.2"   Gusts: NA
Location:  45.3559°N, 92.3527°W
Report Text: KOEO 200615Z AUTO 15007KT 10SM OVC014 M02/M04 A3020 RMK AO2 T10191040
Loading
Personal Weather Stations






























Interactive Weather Map New forecast layout! Learn more

10-Day Weather Forecast

Advertisements
Track Severe Weather on mobile